Wetter- und Hausseite der Bittkau's aus Magdeburg Ottersleben

Hier werden aktuelle Daten aus einer privaten Wetterstation und

lokale Wettervorhersagen bereitgestellt




Thunder radar more information blitzortung!


Rain radar more information rain snow radar



Es liegt ein Kommunikationsproblem vor. Gehen Sie direkt zur Website Meteoalarm : www.meteoalarm.eu und überprüfen Sie die Wetterwarnungen..

METAR-Meldungen aus der Umgebung

   
EDDB - Berlin
Aktualisierung: 29.06.2022 12:20
Klar  
Klar  
   Wind: Osten 11.1 km/h
Wind: Osten 11.1 km/h
Temperatur: 18°C
Taupunkt: 13°C
Luftfeuchte: 73%
Luftdruck: 1020 hPa
Sichtbarkeit: More than 10 km
Bewölkung: Klar
EDDB 282220Z 08006KT CAVOK 18/13 Q1020 NOSIG
EDDP - Leipzig
Aktualisierung: 29.06.2022 12:20
Klar  
Klar  
   Wind: NO 9.3 km/h
Wind: NO 9.3 km/h
Temperatur: 17°C
Taupunkt: 10°C
Luftfeuchte: 64%
Luftdruck: 1018 hPa
Sichtbarkeit: More than 10 km
Bewölkung: Klar
EDDP 282220Z 04005KT CAVOK 17/10 Q1018 NOSIG
EDDC - Dresden
Aktualisierung: 29.06.2022 12:20
Klar  
Klar  
   Wind: ONO 7.4 km/h
Wind: ONO 7.4 km/h
Temperatur: 19°C
Taupunkt: 13°C
Luftfeuchte: 68%
Luftdruck: 1019 hPa
Sichtbarkeit: More than 10 km
Bewölkung: Klar
EDDC 282220Z AUTO 06004KT CAVOK 19/13 Q1019
EDDE - Erfurt
Aktualisierung: 29.06.2022 12:20
Klar  
Klar  
   Wind: ONO 7.4 km/h
Wind: ONO 7.4 km/h
Temperatur: 18°C
Taupunkt: 8°C
Luftfeuchte: 52%
Luftdruck: 1019 hPa
Sichtbarkeit: More than 10 km
Bewölkung: Klar
EDDE 282220Z AUTO 06004KT CAVOK 18/08 Q1019
EDVE - Braunschweig
Aktualisierung: 29.06.2022 12:20
Klar  
Klar  
   Wind: Windstille
Wind: Windstille
Temperatur: 13°C
Taupunkt: 9°C
Luftfeuchte: 77%
Luftdruck: 1019 hPa
Bewölkt: Klar
Sichtbarkeit: More than 10 km
Bewölkung: Klar
EDVE 282220Z AUTO 00000KT 9999 NCD 13/09 Q1019
EDDV - Hannover
Aktualisierung: 29.06.2022 12:20
Klar  
Klar  
   Wind: Osten 1.9 km/h
Wind: Osten 1.9 km/h
Temperatur: 16°C
Taupunkt: 10°C
Luftfeuchte: 68%
Luftdruck: 1019 hPa
Sichtbarkeit: More than 10 km
Bewölkung: Klar
EDDV 282220Z AUTO 08001KT CAVOK 16/10 Q1019
EDDE - Schwerin
Aktualisierung: 29.06.2022 12:20
Klar  
Klar  
   Wind: ONO 7.4 km/h
Wind: ONO 7.4 km/h
Temperatur: 18°C
Taupunkt: 8°C
Luftfeuchte: 52%
Luftdruck: 1019 hPa
Sichtbarkeit: More than 10 km
Bewölkung: Klar
EDDE 282220Z AUTO 06004KT CAVOK 18/08 Q1019
EDHI - Hamburg
Aktualisierung: 29.06.2022 12:20
Klar  
Klar  
   Wind: NO 13 km/h
Wind: NO 13 km/h
Temperatur: 18°C
Taupunkt: 12°C
Luftfeuchte: 68%
Luftdruck: 1020 hPa
Bewölkt: Klar
Sichtbarkeit: More than 10 km
Bewölkung: Klar
EDHI 282220Z AUTO 05007KT 9999 // NCD 18/12 Q1020
EDDK - Köln-Bonn
Aktualisierung: 29.06.2022 12:20
Klar  
Klar  
   Wind: ONO 11.1 km/h
Wind: ONO 11.1 km/h
Temperatur: 19°C
Taupunkt: 12°C
Luftfeuchte: 64%
Luftdruck: 1017 hPa
Sichtbarkeit: More than 10 km
Bewölkung: Klar
EDDK 282220Z AUTO 07006KT CAVOK 19/12 Q1017 NOSIG

Script entwickelt von  Saratoga-weather.org Angepasst für das Template von  Weerstation Leuven

Sie finden die Wetterinfo auch auf:

Wetternetzwerk Deutschland

Weather Underground

Regionalwetter-SA

wetter.com

wxforum.de

Genutzte Hardware, Software und WEB Anbieter:

Wetterstation
Ventus W928-Ultimate

Wetterprogramm
Weather Display

WetterComputer
RaspberryPI

Anbieter

Ventus W928-Ultimate

Weather Display

RaspberryPI